NORTHERN QUEENS  -  Heat Advisory Heat Advisory     Air Quality Alert Air Quality Alert        SOUTHERN QUEENS  -  Heat Advisory Heat Advisory     Air Quality Alert Air Quality Alert      

Active alerts

Northern Queens
  Details for Northern Queens Heat Advisory  +1 additional alert
Southern Queens
  Details for Southern Queens Heat Advisory  +1 additional alert


WXM80 ListenWXM80 Stop

You find our weather info also at:

UK Metoffice

WeatherCloud

Weather Underground

Northeastern Weather Network

AWEKAS

Citizen Weather Observer Program (CWOP)

HAMweather, WeatherForYou, PWS Weather


Weather Underground History page Text

Daily Summary for March 24, 2016 Units:  English    Metric   Both
« Previous Day
Next Day »
Daily Weekly Monthly Yearly Custom
  High: Low: Average:
Temperature: 48.7 °F 42.5 °F 45 °F
Dew Point: 42.6 °F 38.1 °F 40.6 °F
Humidity: 97 % 76 % 85 %
Wind Speed: 14.4 mph 0.1 mph 8.5 mph
Wind Gust: 21.9 mph - -
Wind:- - ENE
Pressure: 30.11 in 29.85 in -
Precipitation: 0.00 in    
Historical Graphs
 
 
Tabular Data for March 24, 2016
Time Temperature Dew Point Pressure Wind Wind Speed Wind Gust Humidity Rainfall Rate (Hourly)
00:01 48.7 °F 41.8 °F 30.05 in ENE 0.1 mph 1.2 mph 77 % 0.00 in
00:06 48.5 °F 41.3 °F 30.05 in ENE 0.1 mph 1.2 mph 76 % 0.00 in
00:11 48.2 °F 41.3 °F 30.05 in ENE 0.7 mph 2.0 mph 77 % 0.00 in
00:16 48.0 °F 41.1 °F 30.05 in ENE 1.1 mph 3.0 mph 77 % 0.00 in
00:21 47.6 °F 41.4 °F 30.05 in ENE 8.4 mph 11.5 mph 79 % 0.00 in
00:26 47.4 °F 41.9 °F 30.05 in NE 6.9 mph 10.4 mph 81 % 0.00 in
00:31 47.3 °F 42.1 °F 30.05 in ENE 7.0 mph 10.4 mph 82 % 0.00 in
00:36 46.9 °F 42.0 °F 30.05 in ENE 9.3 mph 11.5 mph 83 % 0.00 in
00:41 46.6 °F 42.0 °F 30.05 in NE 8.1 mph 11.5 mph 84 % 0.00 in
00:46 46.4 °F 41.5 °F 30.05 in ENE 8.7 mph 11.5 mph 83 % 0.00 in
00:52 46.3 °F 41.4 °F 30.05 in ENE 8.8 mph 12.7 mph 83 % 0.00 in
00:57 46.2 °F 41.0 °F 30.05 in ENE 10.0 mph 16.1 mph 82 % 0.00 in
01:02 46.2 °F 40.7 °F 30.05 in ENE 9.6 mph 14.0 mph 81 % 0.00 in
01:07 46.2 °F 40.4 °F 30.05 in East 9.8 mph 13.0 mph 80 % 0.00 in
01:12 46.2 °F 40.4 °F 30.06 in East 9.5 mph 15.0 mph 80 % 0.00 in
01:17 46.1 °F 40.3 °F 30.06 in East 9.5 mph 15.0 mph 80 % 0.00 in
01:22 46.0 °F 40.2 °F 30.06 in East 8.0 mph 11.5 mph 80 % 0.00 in
01:27 45.9 °F 40.1 °F 30.06 in ENE 9.1 mph 13.8 mph 80 % 0.00 in
01:32 45.8 °F 40.3 °F 30.06 in ENE 9.3 mph 11.5 mph 81 % 0.00 in
01:37 45.6 °F 40.1 °F 30.06 in NE 8.9 mph 15.0 mph 81 % 0.00 in
01:43 45.5 °F 40.3 °F 30.06 in East 9.0 mph 12.7 mph 82 % 0.00 in
01:48 45.3 °F 40.1 °F 30.06 in ENE 8.1 mph 10.4 mph 82 % 0.00 in
01:53 45.1 °F 39.9 °F 30.06 in East 7.3 mph 10.4 mph 82 % 0.00 in
01:58 45.0 °F 40.1 °F 30.06 in East 7.9 mph 10.4 mph 83 % 0.00 in
02:03 44.9 °F 40.0 °F 30.06 in East 7.7 mph 10.4 mph 83 % 0.00 in
02:08 44.7 °F 39.9 °F 30.06 in ENE 7.3 mph 9.2 mph 83 % 0.00 in
02:13 44.7 °F 39.9 °F 30.06 in ENE 8.7 mph 11.5 mph 83 % 0.00 in
02:18 44.6 °F 39.8 °F 30.07 in ENE 9.2 mph 11.5 mph 83 % 0.00 in
02:23 44.6 °F 39.8 °F 30.07 in ENE 7.9 mph 12.7 mph 83 % 0.00 in
02:29 44.5 °F 39.7 °F 30.07 in East 8.6 mph 13.8 mph 83 % 0.00 in
02:34 44.5 °F 39.7 °F 30.07 in East 9.4 mph 11.5 mph 83 % 0.00 in
02:39 44.4 °F 39.6 °F 30.07 in ENE 8.8 mph 12.7 mph 83 % 0.00 in
02:44 44.3 °F 39.5 °F 30.07 in ENE 8.6 mph 11.5 mph 83 % 0.00 in
02:54 44.2 °F 39.4 °F 30.07 in East 8.5 mph 11.5 mph 83 % 0.00 in
02:59 44.1 °F 39.3 °F 30.07 in East 10.4 mph 15.0 mph 83 % 0.00 in
03:04 44.0 °F 39.2 °F 30.06 in East 9.3 mph 11.5 mph 83 % 0.00 in
03:09 44.0 °F 39.2 °F 30.06 in East 9.6 mph 13.8 mph 83 % 0.00 in
03:14 44.0 °F 39.2 °F 30.06 in East 8.6 mph 12.7 mph 83 % 0.00 in
03:20 43.9 °F 39.1 °F 30.06 in ENE 7.5 mph 10.4 mph 83 % 0.00 in
03:25 43.9 °F 39.1 °F 30.06 in East 9.9 mph 12.0 mph 83 % 0.00 in
03:30 43.8 °F 39.0 °F 30.06 in ENE 7.9 mph 11.5 mph 83 % 0.00 in
03:35 43.8 °F 39.0 °F 30.06 in East 8.6 mph 12.7 mph 83 % 0.00 in
03:40 43.8 °F 39.0 °F 30.06 in East 7.3 mph 9.2 mph 83 % 0.00 in
03:45 43.7 °F 39.2 °F 30.06 in ENE 7.6 mph 11.5 mph 84 % 0.00 in
03:50 43.7 °F 39.2 °F 30.05 in ENE 7.9 mph 9.2 mph 84 % 0.00 in
03:55 43.6 °F 39.1 °F 30.05 in ENE 8.3 mph 11.5 mph 84 % 0.00 in
04:00 43.6 °F 39.1 °F 30.05 in ENE 8.6 mph 11.5 mph 84 % 0.00 in
04:05 43.5 °F 39.0 °F 30.06 in ENE 7.8 mph 12.7 mph 84 % 0.00 in
04:11 43.4 °F 39.2 °F 30.06 in East 7.0 mph 11.5 mph 85 % 0.00 in
04:16 43.4 °F 39.2 °F 30.06 in ENE 6.8 mph 9.2 mph 85 % 0.00 in
04:21 43.3 °F 39.1 °F 30.06 in East 7.8 mph 10.4 mph 85 % 0.00 in
04:26 43.3 °F 39.1 °F 30.06 in ENE 7.2 mph 10.4 mph 85 % 0.00 in
04:31 43.2 °F 39.3 °F 30.07 in East 8.5 mph 11.5 mph 86 % 0.00 in
04:36 43.2 °F 39.0 °F 30.07 in East 8.2 mph 10.4 mph 85 % 0.00 in
04:41 43.2 °F 39.3 °F 30.07 in ENE 7.9 mph 10.4 mph 86 % 0.00 in
04:46 43.2 °F 39.3 °F 30.07 in ENE 8.6 mph 11.5 mph 86 % 0.00 in
04:51 43.2 °F 39.3 °F 30.07 in ENE 8.2 mph 11.5 mph 86 % 0.00 in
04:56 43.2 °F 39.3 °F 30.07 in ENE 9.9 mph 11.5 mph 86 % 0.00 in
05:02 43.2 °F 39.3 °F 30.07 in ENE 8.8 mph 11.5 mph 86 % 0.00 in
05:07 43.1 °F 39.2 °F 30.07 in ENE 6.9 mph 11.5 mph 86 % 0.00 in
05:12 43.1 °F 39.2 °F 30.07 in East 9.0 mph 11.5 mph 86 % 0.00 in
05:17 43.0 °F 39.1 °F 30.06 in ENE 9.1 mph 11.5 mph 86 % 0.00 in
05:22 43.0 °F 39.1 °F 30.06 in ESE 8.0 mph 10.4 mph 86 % 0.00 in
05:27 42.9 °F 39.0 °F 30.06 in East 7.2 mph 9.2 mph 86 % 0.00 in
05:32 42.9 °F 39.0 °F 30.06 in NE 8.6 mph 11.0 mph 86 % 0.00 in
05:37 42.9 °F 38.7 °F 30.07 in East 6.8 mph 11.5 mph 85 % 0.00 in
05:42 42.9 °F 38.7 °F 30.07 in East 6.7 mph 11.5 mph 85 % 0.00 in
05:47 42.8 °F 38.6 °F 30.07 in ENE 7.2 mph 9.0 mph 85 % 0.00 in
05:53 42.8 °F 38.6 °F 30.07 in East 7.2 mph 9.2 mph 85 % 0.00 in
05:58 42.8 °F 38.9 °F 30.07 in ENE 7.2 mph 10.4 mph 86 % 0.00 in
06:03 42.8 °F 38.6 °F 30.07 in East 5.6 mph 10.4 mph 85 % 0.00 in
06:08 42.8 °F 38.6 °F 30.08 in ENE 8.2 mph 11.5 mph 85 % 0.00 in
06:13 42.8 °F 38.6 °F 30.08 in ENE 6.7 mph 8.1 mph 85 % 0.00 in
06:18 42.8 °F 38.6 °F 30.08 in ENE 7.2 mph 12.7 mph 85 % 0.00 in
06:28 42.7 °F 38.5 °F 30.09 in East 7.4 mph 9.2 mph 85 % 0.00 in
06:33 42.7 °F 38.5 °F 30.09 in ENE 7.9 mph 12.7 mph 85 % 0.00 in
06:38 42.7 °F 38.5 °F 30.09 in ENE 8.6 mph 11.5 mph 85 % 0.00 in
06:44 42.7 °F 38.5 °F 30.09 in ENE 6.0 mph 11.5 mph 85 % 0.00 in
06:49 42.6 °F 38.4 °F 30.09 in NE 6.9 mph 10.4 mph 85 % 0.00 in
06:54 42.7 °F 38.2 °F 30.09 in ENE 7.5 mph 11.0 mph 84 % 0.00 in
06:59 42.7 °F 38.2 °F 30.09 in ENE 6.1 mph 10.4 mph 84 % 0.00 in
07:04 42.8 °F 38.3 °F 30.09 in NE 7.7 mph 11.5 mph 84 % 0.00 in
07:09 42.8 °F 38.3 °F 30.09 in East 7.9 mph 11.5 mph 84 % 0.00 in
07:14 42.8 °F 38.3 °F 30.09 in ENE 9.0 mph 11.0 mph 84 % 0.00 in
07:24 42.9 °F 38.1 °F 30.09 in ENE 9.0 mph 11.5 mph 83 % 0.00 in
07:29 43.0 °F 38.2 °F 30.09 in ENE 8.1 mph 13.8 mph 83 % 0.00 in
07:35 43.1 °F 38.3 °F 30.09 in ENE 8.2 mph 11.5 mph 83 % 0.00 in
07:40 43.3 °F 38.2 °F 30.09 in East 7.8 mph 11.5 mph 82 % 0.00 in
07:45 43.4 °F 38.3 °F 30.10 in East 7.9 mph 10.4 mph 82 % 0.00 in
07:50 43.5 °F 38.4 °F 30.10 in ENE 10.8 mph 13.8 mph 82 % 0.00 in
07:55 43.6 °F 38.5 °F 30.10 in East 9.4 mph 12.7 mph 82 % 0.00 in
08:00 43.7 °F 38.6 °F 30.10 in ENE 9.6 mph 15.0 mph 82 % 0.00 in
08:05 43.8 °F 38.3 °F 30.10 in ENE 9.2 mph 13.8 mph 81 % 0.00 in
08:10 43.9 °F 38.4 °F 30.10 in ENE 9.7 mph 12.0 mph 81 % 0.00 in
08:15 44.0 °F 38.5 °F 30.10 in ENE 10.0 mph 12.7 mph 81 % 0.00 in
08:20 44.2 °F 38.7 °F 30.09 in ENE 11.0 mph 15.0 mph 81 % 0.00 in
08:26 44.3 °F 38.8 °F 30.09 in ENE 7.8 mph 12.7 mph 81 % 0.00 in
08:31 44.5 °F 39.0 °F 30.09 in East 9.7 mph 12.7 mph 81 % 0.00 in
08:36 44.8 °F 39.3 °F 30.08 in East 9.0 mph 11.5 mph 81 % 0.00 in
08:41 45.0 °F 39.5 °F 30.08 in East 10.4 mph 12.7 mph 81 % 0.00 in
08:46 45.2 °F 39.7 °F 30.08 in East 8.6 mph 12.7 mph 81 % 0.00 in
08:51 45.4 °F 39.9 °F 30.08 in East 9.0 mph 12.7 mph 81 % 0.00 in
08:56 45.7 °F 39.9 °F 30.08 in East 11.7 mph 15.0 mph 80 % 0.00 in
09:01 45.9 °F 39.8 °F 30.08 in East 9.5 mph 15.0 mph 79 % 0.00 in
09:11 46.1 °F 39.6 °F 30.09 in ENE 10.5 mph 16.1 mph 78 % 0.00 in
09:17 46.0 °F 39.9 °F 30.09 in East 10.4 mph 14.0 mph 79 % 0.00 in
09:22 45.8 °F 39.7 °F 30.09 in East 11.0 mph 16.1 mph 79 % 0.00 in
09:27 45.6 °F 39.8 °F 30.09 in ENE 8.9 mph 11.5 mph 80 % 0.00 in
09:32 45.5 °F 39.7 °F 30.09 in East 11.3 mph 15.0 mph 80 % 0.00 in
09:37 45.2 °F 39.7 °F 30.09 in ENE 8.5 mph 19.0 mph 81 % 0.00 in
09:42 45.0 °F 39.5 °F 30.09 in ENE 13.5 mph 18.4 mph 81 % 0.00 in
09:47 44.9 °F 39.7 °F 30.10 in East 11.3 mph 16.0 mph 82 % 0.00 in
09:57 44.8 °F 39.6 °F 30.09 in ENE 12.9 mph 14.0 mph 82 % 0.00 in
10:02 45.0 °F 39.8 °F 30.10 in East 9.1 mph 15.0 mph 82 % 0.00 in
10:08 45.1 °F 39.6 °F 30.10 in ENE 12.1 mph 18.4 mph 81 % 0.00 in
10:13 45.1 °F 39.6 °F 30.10 in ENE 12.8 mph 19.0 mph 81 % 0.00 in
10:18 45.1 °F 39.6 °F 30.10 in ENE 11.2 mph 13.8 mph 81 % 0.00 in
10:23 45.2 °F 39.7 °F 30.10 in ENE 13.2 mph 18.4 mph 81 % 0.00 in
10:28 45.2 °F 39.7 °F 30.10 in East 13.4 mph 18.4 mph 81 % 0.00 in
10:33 45.2 °F 39.7 °F 30.10 in ENE 12.3 mph 17.3 mph 81 % 0.00 in
10:38 45.2 °F 39.4 °F 30.10 in East 13.7 mph 19.6 mph 80 % 0.00 in
10:43 45.2 °F 39.7 °F 30.11 in East 13.8 mph 16.1 mph 81 % 0.00 in
10:48 45.3 °F 39.8 °F 30.10 in ENE 11.9 mph 18.4 mph 81 % 0.00 in
10:53 45.4 °F 39.6 °F 30.10 in East 11.2 mph 19.6 mph 80 % 0.00 in
10:59 45.4 °F 39.9 °F 30.10 in NE 12.8 mph 21.9 mph 81 % 0.00 in
11:04 45.7 °F 39.9 °F 30.09 in NE 12.2 mph 17.3 mph 80 % 0.00 in
11:09 46.0 °F 40.2 °F 30.10 in ENE 11.1 mph 16.1 mph 80 % 0.00 in
11:14 46.1 °F 39.9 °F 30.10 in East 12.4 mph 15.0 mph 79 % 0.00 in
11:19 46.1 °F 39.9 °F 30.10 in ENE 13.0 mph 18.4 mph 79 % 0.00 in
11:24 46.1 °F 39.9 °F 30.09 in East 12.9 mph 16.1 mph 79 % 0.00 in
11:29 46.2 °F 40.0 °F 30.09 in NE 12.0 mph 15.0 mph 79 % 0.00 in
11:34 46.2 °F 40.4 °F 30.09 in ENE 12.3 mph 15.0 mph 80 % 0.00 in
11:39 46.5 °F 40.7 °F 30.09 in ENE 13.3 mph 17.3 mph 80 % 0.00 in
11:44 46.7 °F 40.5 °F 30.09 in ENE 11.7 mph 13.0 mph 79 % 0.00 in
11:55 46.6 °F 40.4 °F 30.09 in ENE 12.1 mph 16.1 mph 79 % 0.00 in
12:00 46.5 °F 40.3 °F 30.08 in ENE 12.6 mph 16.1 mph 79 % 0.00 in
12:05 46.6 °F 40.4 °F 30.08 in East 11.9 mph 18.4 mph 79 % 0.00 in
12:10 46.7 °F 40.5 °F 30.08 in East 11.7 mph 19.0 mph 79 % 0.00 in
12:15 46.7 °F 40.2 °F 30.08 in ENE 13.3 mph 17.3 mph 78 % 0.00 in
12:20 46.7 °F 40.2 °F 30.08 in ENE 12.7 mph 15.0 mph 78 % 0.00 in
12:25 46.9 °F 40.4 °F 30.07 in ENE 12.1 mph 19.6 mph 78 % 0.00 in
12:30 47.2 °F 40.4 °F 30.07 in ENE 11.9 mph 19.0 mph 77 % 0.00 in
12:35 47.2 °F 40.0 °F 30.07 in ENE 11.9 mph 17.3 mph 76 % 0.00 in
12:41 47.1 °F 40.3 °F 30.07 in ENE 11.8 mph 16.1 mph 77 % 0.00 in
12:46 46.8 °F 40.0 °F 30.07 in ENE 11.8 mph 15.0 mph 77 % 0.00 in
12:51 46.6 °F 40.1 °F 30.07 in ENE 11.2 mph 17.3 mph 78 % 0.00 in
12:56 46.6 °F 40.1 °F 30.07 in East 10.3 mph 14.0 mph 78 % 0.00 in
13:01 46.8 °F 40.3 °F 30.06 in ENE 13.4 mph 17.3 mph 78 % 0.00 in
13:06 46.8 °F 40.3 °F 30.07 in ENE 11.3 mph 15.0 mph 78 % 0.00 in
13:11 46.6 °F 39.8 °F 30.07 in ENE 12.9 mph 16.1 mph 77 % 0.00 in
13:16 46.5 °F 40.0 °F 30.06 in East 10.1 mph 14.0 mph 78 % 0.00 in
13:21 46.5 °F 40.0 °F 30.06 in ENE 13.2 mph 15.0 mph 78 % 0.00 in
13:26 46.6 °F 40.4 °F 30.06 in ENE 12.5 mph 17.3 mph 79 % 0.00 in
13:32 46.8 °F 40.3 °F 30.05 in ENE 11.5 mph 18.4 mph 78 % 0.00 in
13:37 47.0 °F 40.5 °F 30.04 in East 11.0 mph 16.1 mph 78 % 0.00 in
13:42 47.1 °F 40.6 °F 30.04 in East 9.7 mph 12.7 mph 78 % 0.00 in
13:47 47.3 °F 40.8 °F 30.04 in ENE 11.4 mph 13.8 mph 78 % 0.00 in
13:52 47.4 °F 40.9 °F 30.04 in ENE 9.5 mph 11.5 mph 78 % 0.00 in
13:57 47.9 °F 41.4 °F 30.04 in ENE 9.6 mph 13.8 mph 78 % 0.00 in
14:02 48.0 °F 41.1 °F 30.03 in ENE 8.6 mph 12.7 mph 77 % 0.00 in
14:07 47.9 °F 41.0 °F 30.03 in ENE 9.9 mph 12.7 mph 77 % 0.00 in
14:12 47.8 °F 41.3 °F 30.02 in ENE 9.1 mph 11.5 mph 78 % 0.00 in
14:17 48.0 °F 41.8 °F 30.02 in East 10.0 mph 11.5 mph 79 % 0.00 in
14:23 48.1 °F 41.9 °F 30.02 in ENE 9.8 mph 12.7 mph 79 % 0.00 in
14:28 48.1 °F 41.9 °F 30.02 in East 8.9 mph 11.5 mph 79 % 0.00 in
14:33 48.2 °F 42.0 °F 30.02 in ENE 9.3 mph 12.0 mph 79 % 0.00 in
14:38 48.3 °F 42.1 °F 30.02 in NE 10.7 mph 14.0 mph 79 % 0.00 in
14:43 48.2 °F 42.0 °F 30.02 in ENE 11.0 mph 17.0 mph 79 % 0.00 in
14:48 47.8 °F 41.3 °F 30.01 in ENE 14.4 mph 17.3 mph 78 % 0.00 in
14:53 47.4 °F 41.5 °F 30.00 in ENE 11.0 mph 13.0 mph 80 % 0.00 in
14:58 47.4 °F 41.5 °F 30.00 in East 11.5 mph 12.7 mph 80 % 0.00 in
15:03 47.3 °F 41.4 °F 30.00 in ENE 13.2 mph 16.1 mph 80 % 0.00 in
15:09 47.2 °F 41.3 °F 30.00 in East 12.8 mph 15.0 mph 80 % 0.00 in
15:14 47.1 °F 41.2 °F 29.99 in NE 12.9 mph 19.6 mph 80 % 0.00 in
15:19 46.9 °F 41.1 °F 29.99 in NE 13.1 mph 18.4 mph 80 % 0.00 in
15:24 46.7 °F 41.2 °F 29.99 in ENE 11.7 mph 16.0 mph 81 % 0.00 in
15:29 46.7 °F 41.2 °F 29.99 in ENE 11.9 mph 17.3 mph 81 % 0.00 in
15:34 46.7 °F 41.2 °F 29.99 in ENE 12.4 mph 20.0 mph 81 % 0.00 in
15:39 46.4 °F 40.9 °F 29.99 in ENE 12.9 mph 17.3 mph 81 % 0.00 in
15:49 46.3 °F 41.1 °F 29.98 in ENE 13.6 mph 18.4 mph 82 % 0.00 in
15:54 46.2 °F 41.0 °F 29.98 in ENE 12.8 mph 19.6 mph 82 % 0.00 in
16:00 46.4 °F 41.5 °F 29.98 in East 11.5 mph 16.1 mph 83 % 0.00 in
16:05 46.6 °F 41.4 °F 29.98 in East 10.1 mph 12.7 mph 82 % 0.00 in
16:10 46.6 °F 41.4 °F 29.98 in East 12.0 mph 15.0 mph 82 % 0.00 in
16:15 46.5 °F 41.3 °F 29.98 in ENE 12.9 mph 18.4 mph 82 % 0.00 in
16:20 46.5 °F 41.6 °F 29.97 in ENE 9.4 mph 15.0 mph 83 % 0.00 in
16:25 46.5 °F 41.6 °F 29.97 in East 10.4 mph 15.0 mph 83 % 0.00 in
16:30 46.5 °F 41.6 °F 29.97 in ENE 10.7 mph 15.0 mph 83 % 0.00 in
16:35 46.4 °F 41.8 °F 29.97 in ENE 10.1 mph 13.8 mph 84 % 0.00 in
16:40 46.2 °F 41.6 °F 29.97 in East 11.2 mph 15.0 mph 84 % 0.00 in
16:45 46.0 °F 41.7 °F 29.96 in East 10.3 mph 16.1 mph 85 % 0.00 in
16:51 45.9 °F 41.6 °F 29.96 in ENE 9.0 mph 12.0 mph 85 % 0.00 in
16:56 45.9 °F 41.6 °F 29.96 in East 8.9 mph 11.5 mph 85 % 0.00 in
17:01 45.7 °F 41.4 °F 29.96 in ENE 10.0 mph 15.0 mph 85 % 0.00 in
17:06 45.4 °F 41.5 °F 29.96 in ENE 8.7 mph 12.7 mph 86 % 0.00 in
17:11 45.2 °F 41.3 °F 29.96 in ENE 7.9 mph 11.5 mph 86 % 0.00 in
17:16 45.1 °F 41.5 °F 29.96 in ENE 8.3 mph 15.0 mph 87 % 0.00 in
17:21 45.0 °F 41.4 °F 29.95 in NE 7.8 mph 11.5 mph 87 % 0.00 in
17:26 45.0 °F 41.4 °F 29.95 in ENE 6.5 mph 11.5 mph 87 % 0.00 in
17:31 44.9 °F 41.6 °F 29.95 in ENE 7.9 mph 11.5 mph 88 % 0.00 in
17:36 44.9 °F 41.6 °F 29.95 in East 6.3 mph 9.2 mph 88 % 0.00 in
17:42 44.9 °F 41.6 °F 29.94 in ENE 5.3 mph 12.7 mph 88 % 0.00 in
17:47 45.1 °F 42.1 °F 29.95 in SSE 6.0 mph 11.5 mph 89 % 0.00 in
17:52 45.7 °F 42.6 °F 29.95 in East 6.2 mph 10.4 mph 89 % 0.00 in
17:57 46.2 °F 42.5 °F 29.95 in East 5.0 mph 8.1 mph 87 % 0.00 in
18:07 46.5 °F 42.5 °F 29.95 in East 8.0 mph 10.4 mph 86 % 0.00 in
18:12 46.5 °F 42.5 °F 29.95 in SSE 5.9 mph 9.2 mph 86 % 0.00 in
18:17 46.4 °F 42.4 °F 29.95 in SE 4.9 mph 7.0 mph 86 % 0.00 in
18:22 46.4 °F 42.4 °F 29.94 in ESE 5.2 mph 8.1 mph 86 % 0.00 in
18:27 46.3 °F 42.6 °F 29.94 in ESE 4.7 mph 8.1 mph 87 % 0.00 in
18:33 46.2 °F 42.5 °F 29.94 in East 5.6 mph 8.1 mph 87 % 0.00 in
18:38 46.1 °F 42.4 °F 29.94 in East 3.0 mph 4.6 mph 87 % 0.00 in
18:43 46.2 °F 42.5 °F 29.94 in East 3.0 mph 5.8 mph 87 % 0.00 in
18:48 46.1 °F 42.4 °F 29.94 in East 5.6 mph 8.1 mph 87 % 0.00 in
18:53 45.9 °F 42.5 °F 29.94 in East 7.9 mph 11.0 mph 88 % 0.00 in
18:58 45.8 °F 42.4 °F 29.94 in East 4.6 mph 7.0 mph 88 % 0.00 in
19:03 45.7 °F 42.3 °F 29.94 in East 4.5 mph 8.1 mph 88 % 0.00 in
19:08 45.6 °F 42.3 °F 29.93 in East 5.5 mph 8.0 mph 88 % 0.00 in
19:13 45.5 °F 42.4 °F 29.93 in East 5.5 mph 8.1 mph 89 % 0.00 in
19:18 45.5 °F 42.4 °F 29.94 in East 3.9 mph 8.1 mph 89 % 0.00 in
19:24 45.5 °F 42.4 °F 29.93 in East 5.3 mph 6.0 mph 89 % 0.00 in
19:29 45.4 °F 42.3 °F 29.93 in East 1.4 mph 4.6 mph 89 % 0.00 in
19:34 45.4 °F 42.6 °F 29.93 in East 4.1 mph 6.0 mph 90 % 0.00 in
19:39 45.4 °F 42.6 °F 29.93 in East 3.7 mph 6.0 mph 90 % 0.00 in
19:44 45.4 °F 42.6 °F 29.93 in NE 4.5 mph 5.8 mph 90 % 0.00 in
19:49 45.3 °F 42.5 °F 29.93 in East 6.5 mph 8.1 mph 90 % 0.00 in
19:54 45.2 °F 42.4 °F 29.93 in East 5.6 mph 7.0 mph 90 % 0.00 in
19:59 45.1 °F 42.3 °F 29.93 in East 6.1 mph 8.1 mph 90 % 0.00 in
20:04 45.0 °F 42.5 °F 29.93 in East 2.3 mph 9.2 mph 91 % 0.00 in
20:09 44.9 °F 42.4 °F 29.93 in ENE 4.7 mph 6.0 mph 91 % 0.00 in
20:15 44.8 °F 42.3 °F 29.93 in NE 4.2 mph 6.9 mph 91 % 0.00 in
20:20 44.7 °F 42.2 °F 29.92 in East 5.8 mph 6.0 mph 91 % 0.00 in
20:25 44.7 °F 42.5 °F 29.92 in ENE 3.7 mph 6.9 mph 92 % 0.00 in
20:30 44.5 °F 42.3 °F 29.92 in East 4.7 mph 8.1 mph 92 % 0.00 in
20:35 44.4 °F 42.2 °F 29.92 in East 5.4 mph 9.2 mph 92 % 0.00 in
20:40 44.3 °F 42.1 °F 29.91 in East 5.9 mph 7.0 mph 92 % 0.00 in
20:45 44.2 °F 42.3 °F 29.92 in ENE 5.4 mph 6.9 mph 93 % 0.00 in
20:50 44.1 °F 42.2 °F 29.92 in ENE 4.6 mph 6.9 mph 93 % 0.00 in
20:55 44.1 °F 42.2 °F 29.92 in ENE 5.6 mph 12.0 mph 93 % 0.00 in
21:00 43.8 °F 41.9 °F 29.92 in ENE 5.9 mph 10.4 mph 93 % 0.00 in
21:06 43.6 °F 41.7 °F 29.92 in East 8.4 mph 11.0 mph 93 % 0.00 in
21:11 43.2 °F 41.3 °F 29.91 in East 10.0 mph 16.1 mph 93 % 0.00 in
21:16 42.9 °F 41.3 °F 29.91 in NE 7.8 mph 11.5 mph 94 % 0.00 in
21:21 42.7 °F 41.1 °F 29.91 in ENE 8.7 mph 10.4 mph 94 % 0.00 in
21:26 42.6 °F 41.0 °F 29.92 in East 5.2 mph 11.5 mph 94 % 0.00 in
21:31 42.5 °F 41.2 °F 29.92 in East 6.8 mph 10.4 mph 95 % 0.00 in
21:36 42.5 °F 41.2 °F 29.92 in ENE 4.7 mph 10.4 mph 95 % 0.00 in
21:41 42.6 °F 41.3 °F 29.92 in ENE 6.2 mph 11.5 mph 95 % 0.00 in
21:46 42.6 °F 41.3 °F 29.92 in ENE 5.3 mph 9.2 mph 95 % 0.00 in
21:51 42.7 °F 41.4 °F 29.92 in East 6.0 mph 8.1 mph 95 % 0.00 in
21:57 42.7 °F 41.4 °F 29.91 in ENE 6.4 mph 9.2 mph 95 % 0.00 in
22:02 42.8 °F 41.7 °F 29.91 in East 8.0 mph 10.4 mph 96 % 0.00 in
22:07 42.9 °F 41.8 °F 29.91 in East 6.2 mph 9.2 mph 96 % 0.00 in
22:12 42.9 °F 41.8 °F 29.91 in East 5.5 mph 8.1 mph 96 % 0.00 in
22:17 42.8 °F 41.7 °F 29.90 in East 6.2 mph 9.2 mph 96 % 0.00 in
22:22 42.8 °F 41.7 °F 29.91 in East 5.3 mph 7.0 mph 96 % 0.00 in
22:27 42.9 °F 41.8 °F 29.89 in East 6.5 mph 8.1 mph 96 % 0.00 in
22:32 42.9 °F 41.8 °F 29.89 in East 5.1 mph 7.0 mph 96 % 0.00 in
22:37 43.0 °F 41.9 °F 29.89 in East 5.6 mph 6.9 mph 96 % 0.00 in
22:42 43.1 °F 42.0 °F 29.89 in East 7.4 mph 9.2 mph 96 % 0.00 in
22:48 43.1 °F 42.0 °F 29.89 in ENE 6.7 mph 6.9 mph 96 % 0.00 in
22:53 43.1 °F 42.0 °F 29.88 in ENE 7.4 mph 10.4 mph 96 % 0.00 in
22:58 43.2 °F 42.1 °F 29.88 in ENE 4.7 mph 6.9 mph 96 % 0.00 in
23:03 43.2 °F 42.1 °F 29.88 in ENE 3.7 mph 4.6 mph 96 % 0.00 in
23:08 43.2 °F 42.1 °F 29.88 in ENE 6.1 mph 9.2 mph 96 % 0.00 in
23:13 43.2 °F 42.1 °F 29.88 in ENE 4.7 mph 6.9 mph 96 % 0.00 in
23:18 43.2 °F 42.1 °F 29.87 in East 4.9 mph 9.2 mph 96 % 0.00 in
23:23 43.3 °F 42.2 °F 29.87 in ENE 6.3 mph 8.1 mph 96 % 0.00 in
23:28 43.4 °F 42.6 °F 29.87 in East 6.7 mph 8.1 mph 97 % 0.00 in
23:33 43.4 °F 42.6 °F 29.87 in ENE 3.9 mph 5.8 mph 97 % 0.00 in
23:39 43.4 °F 42.6 °F 29.86 in East 4.8 mph 8.1 mph 97 % 0.00 in
23:44 43.4 °F 42.6 °F 29.85 in ESE 5.1 mph 8.1 mph 97 % 0.00 in
23:49 43.4 °F 42.6 °F 29.86 in NE 2.4 mph 3.5 mph 97 % 0.00 in
23:54 43.4 °F 42.6 °F 29.85 in ENE 4.7 mph 6.9 mph 97 % 0.00 in
Crab Meadow Weather
Compliments of Weather Underground - 3 mb

Script developed by  Jim McMurry - jmcmurry@mwt.net Adapted for the template by  Wim van der Kuil - Leuven-Template.eu

Weather Terms: Flood Stage - The level or stage at which a stream overflows its banks or the stage at which the overflow of a stream begins to cause damage.